Time;durP1;ratioP1;P1;durP2;ratioP2;P2;SDS_P1;SDS_P2;PMS_P1;PMS_P2;Temp;Humidity;BMP_temperature;BMP_pressure;BME280_temperature;BME280_humidity;BME280_pressure;Samples;Min_cycle;Max_cycle;Signal;HPM_P1;HPM_P2
2021/05/27 04:23:40;;;;;;;2.13;1.30;;;;;;;8.80;73.83;99840.94;5193966;27;20333;-66
2021/05/27 04:26:11;;;;;;;1.95;1.20;;;;;;;9.01;74.12;99838.72;5192793;27;20066;-67
2021/05/27 04:28:37;;;;;;;3.28;1.20;;;;;;;9.22;73.71;99832.88;5174159;27;20034;-65
2021/05/27 04:31:09;;;;;;;2.03;1.02;;;;;;;9.42;73.99;99842.13;5193344;27;20027;-64
2021/05/27 04:33:44;;;;;;;4.43;1.60;;;;;;;9.62;73.53;99853.19;5191838;27;20510;-64
2021/05/27 04:36:14;;;;;;;3.60;1.38;;;;;;;9.77;73.03;99841.81;5193465;27;20099;-65
2021/05/27 04:38:40;;;;;;;1.55;1.10;;;;;;;9.90;73.07;99843.94;5193281;27;20061;-65
2021/05/27 04:41:05;;;;;;;1.48;0.80;;;;;;;10.03;73.32;99843.34;5194025;27;20497;-65
2021/05/27 04:43:31;;;;;;;1.25;0.90;;;;;;;10.14;72.74;99848.25;5195172;27;20035;-65
2021/05/27 04:45:56;;;;;;;1.77;1.00;;;;;;;10.24;72.39;99848.06;5194651;27;20035;-65
2021/05/27 04:48:22;;;;;;;1.33;0.80;;;;;;;10.33;72.30;99849.63;5184714;27;20083;-65
2021/05/27 04:50:49;;;;;;;1.98;0.90;;;;;;;10.46;72.28;99854.44;5124180;27;20546;-63
2021/05/27 04:53:18;;;;;;;2.05;1.10;;;;;;;10.58;72.02;99849.50;5131145;27;20028;-63
2021/05/27 04:55:43;;;;;;;3.30;1.30;;;;;;;10.69;70.95;99856.22;5122404;27;20111;-62
2021/05/27 04:58:09;;;;;;;2.80;1.00;;;;;;;10.78;71.09;99861.31;5108359;27;30672;-60
2021/05/27 05:00:34;;;;;;;2.15;1.05;;;;;;;10.91;70.73;99859.91;5111162;27;20037;-62
2021/05/27 05:03:00;;;;;;;1.95;1.15;;;;;;;11.03;70.58;99863.78;5117226;27;20040;-60
2021/05/27 05:05:26;;;;;;;1.52;1.08;;;;;;;11.14;70.63;99866.00;5124709;27;20034;-59
2021/05/27 05:07:52;;;;;;;3.05;1.30;;;;;;;11.27;70.38;99867.19;5117144;27;20563;-64
2021/05/27 05:10:21;;;;;;;3.60;1.35;;;;;;;11.36;69.24;99868.78;5111179;27;20033;-61
2021/05/27 05:12:49;;;;;;;3.67;1.15;;;;;;;11.45;69.36;99862.31;5111594;28;20064;-62
2021/05/27 05:15:19;;;;;;;1.85;1.20;;;;;;;11.60;68.79;99869.50;5111635;27;20083;-60
2021/05/27 05:17:48;;;;;;;1.73;1.30;;;;;;;11.74;68.86;99859.81;5111752;27;20025;-60
2021/05/27 05:20:14;;;;;;;2.03;1.33;;;;;;;11.85;67.56;99873.53;5111181;27;20485;-61
2021/05/27 05:22:39;;;;;;;3.58;1.17;;;;;;;11.97;67.10;99875.75;5111060;27;20048;-62
2021/05/27 05:25:05;;;;;;;2.75;2.13;;;;;;;12.09;66.58;99878.75;5110513;27;20025;-65
2021/05/27 05:27:31;;;;;;;1.23;0.93;;;;;;;12.18;66.13;99878.47;5110655;27;20109;-64
2021/05/27 05:29:56;;;;;;;4.68;1.33;;;;;;;12.31;65.84;99876.94;5109986;27;41948;-63
2021/05/27 05:32:22;;;;;;;3.70;1.50;;;;;;;12.39;65.39;99874.16;5112569;27;30531;-62
2021/05/27 05:34:47;;;;;;;2.08;1.38;;;;;;;12.53;65.58;99888.47;5119022;27;24235;-61
2021/05/27 05:37:12;;;;;;;5.88;1.30;;;;;;;12.75;65.61;99894.63;5118122;27;20024;-65
2021/05/27 05:39:38;;;;;;;3.85;1.45;;;;;;;12.92;64.41;99889.06;5117930;27;20481;-64
2021/05/27 05:42:03;;;;;;;1.60;1.13;;;;;;;13.11;64.05;99900.91;5116733;27;31155;-62
2021/05/27 05:44:29;;;;;;;1.65;1.02;;;;;;;13.21;64.50;99899.53;5117705;27;20028;-61
2021/05/27 05:46:54;;;;;;;2.33;1.40;;;;;;;13.29;63.22;99908.47;5117551;27;20032;-62
2021/05/27 05:49:19;;;;;;;4.57;1.48;;;;;;;13.19;61.78;99909.63;5117138;27;41064;-61
2021/05/27 05:51:45;;;;;;;2.03;1.30;;;;;;;13.07;62.11;99905.81;5116951;27;37503;-61
2021/05/27 05:54:10;;;;;;;2.55;1.40;;;;;;;13.05;61.64;99910.53;5113576;27;33430;-63
2021/05/27 05:56:36;;;;;;;5.35;1.55;;;;;;;13.11;61.93;99915.13;5106830;27;20032;-63
2021/05/27 05:59:01;;;;;;;2.63;1.40;;;;;;;13.24;62.27;99908.22;5095708;28;33247;-63
2021/05/27 06:01:26;;;;;;;1.63;1.30;;;;;;;13.30;62.01;99913.63;5096578;28;20375;-63
2021/05/27 06:03:52;;;;;;;1.65;1.40;;;;;;;13.40;61.39;99918.66;5096670;28;20078;-63
2021/05/27 06:06:17;;;;;;;2.75;1.38;;;;;;;13.43;61.32;99912.09;5095025;28;20037;-62
2021/05/27 06:08:43;;;;;;;2.50;1.48;;;;;;;13.51;60.89;99912.75;5096134;28;28564;-62
2021/05/27 06:11:08;;;;;;;2.28;1.52;;;;;;;13.58;60.86;99903.94;5095889;28;32828;-63
2021/05/27 06:13:34;;;;;;;2.88;2.50;;;;;;;13.73;60.70;99915.34;5095936;28;20124;-62
2021/05/27 06:15:59;;;;;;;3.08;1.55;;;;;;;13.85;61.00;99908.41;5096220;28;20074;-61
2021/05/27 06:18:25;;;;;;;3.53;1.15;;;;;;;14.03;60.13;99901.69;5095956;28;20029;-63
2021/05/27 06:20:50;;;;;;;2.22;1.30;;;;;;;14.24;60.66;99908.75;5096556;28;20025;-62
2021/05/27 06:23:16;;;;;;;3.58;1.20;;;;;;;14.41;59.13;99898.50;5095869;28;20488;-62
2021/05/27 06:25:41;;;;;;;4.63;1.15;;;;;;;14.64;60.04;99905.38;5094481;28;39810;-62
2021/05/27 06:28:07;;;;;;;2.28;1.10;;;;;;;14.74;58.76;99903.13;5095985;28;20175;-61
2021/05/27 06:30:32;;;;;;;3.03;1.58;;;;;;;14.69;57.56;99910.97;5104761;27;20033;-61
2021/05/27 06:32:58;;;;;;;1.10;0.90;;;;;;;14.55;56.94;99908.22;5115702;28;20383;-61
2021/05/27 06:35:24;;;;;;;3.03;1.80;;;;;;;14.52;57.46;99911.31;5116806;27;20028;-62
2021/05/27 06:37:49;;;;;;;3.28;1.30;;;;;;;14.51;57.19;99909.66;5117000;27;20028;-62
2021/05/27 06:40:17;;;;;;;1.58;1.00;;;;;;;14.52;56.33;99903.28;5113551;27;20033;-63
2021/05/27 06:42:43;;;;;;;1.73;0.90;;;;;;;14.62;56.87;99902.06;5105094;27;20107;-61
2021/05/27 06:45:09;;;;;;;0.90;0.75;;;;;;;14.73;56.78;99904.16;5113736;28;20119;-61
2021/05/27 06:47:34;;;;;;;4.15;0.80;;;;;;;14.84;56.23;99898.22;5116816;27;20029;-61
2021/05/27 06:50:00;;;;;;;1.27;0.93;;;;;;;14.91;56.58;99902.72;5116545;27;20028;-61
2021/05/27 06:52:25;;;;;;;1.92;1.00;;;;;;;14.91;55.44;99906.22;5102717;27;20071;-62
2021/05/27 06:54:52;;;;;;;1.77;1.15;;;;;;;14.80;55.50;99904.97;5095662;28;20086;-62
2021/05/27 06:57:17;;;;;;;1.95;0.90;;;;;;;14.91;55.20;99914.28;5096205;28;20028;-61
2021/05/27 06:59:43;;;;;;;1.38;1.00;;;;;;;15.06;55.09;99916.75;5095673;28;26157;-62
2021/05/27 07:02:08;;;;;;;1.60;1.10;;;;;;;15.12;54.44;99915.09;5095518;28;25057;-60
2021/05/27 07:04:33;;;;;;;2.75;1.30;;;;;;;15.03;53.77;99915.31;5103524;28;25140;-60
2021/05/27 07:06:59;;;;;;;1.33;1.02;;;;;;;15.00;53.15;99920.28;5112466;28;35950;-63
2021/05/27 07:09:24;;;;;;;1.73;1.10;;;;;;;14.85;52.48;99928.53;5108441;28;20023;-61
2021/05/27 07:11:49;;;;;;;1.55;1.08;;;;;;;14.82;53.72;99921.72;5097105;27;20033;-62
2021/05/27 07:14:15;;;;;;;1.48;1.27;;;;;;;14.81;53.87;99914.69;5095307;28;28026;-61
2021/05/27 07:16:40;;;;;;;2.47;1.30;;;;;;;14.87;54.04;99918.41;5105825;28;20511;-61
2021/05/27 07:19:06;;;;;;;2.20;1.85;;;;;;;15.13;54.01;99922.13;5100149;28;20063;-63
2021/05/27 07:21:31;;;;;;;1.77;1.30;;;;;;;15.27;53.57;99918.41;5097421;28;20098;-62
2021/05/27 07:23:57;;;;;;;2.53;1.63;;;;;;;15.53;54.13;99916.72;5103585;27;22282;-62
2021/05/27 07:26:22;;;;;;;1.70;1.20;;;;;;;15.72;53.63;99923.09;5105986;28;20028;-63
2021/05/27 07:28:47;;;;;;;2.28;1.25;;;;;;;15.72;52.01;99936.53;5105866;28;20024;-63
2021/05/27 07:31:13;;;;;;;2.70;1.48;;;;;;;15.53;52.05;99922.91;5102075;27;36371;-61
2021/05/27 07:33:39;;;;;;;3.20;1.23;;;;;;;15.71;52.93;99916.88;5112088;27;26515;-63
2021/05/27 07:36:05;;;;;;;1.63;1.10;;;;;;;15.85;53.27;99923.06;5115501;27;20473;-63
2021/05/27 07:38:30;;;;;;;3.30;1.33;;;;;;;15.97;52.55;99927.81;5115222;27;20028;-63
2021/05/27 07:40:55;;;;;;;3.45;1.40;;;;;;;15.83;51.83;99917.09;5115375;27;20028;-62
2021/05/27 07:43:21;;;;;;;2.15;1.20;;;;;;;16.07;53.28;99909.34;5115110;27;20526;-65
2021/05/27 07:45:46;;;;;;;2.03;1.27;;;;;;;16.10;51.04;99911.59;5114703;27;24506;-64
2021/05/27 07:48:12;;;;;;;1.27;1.05;;;;;;;16.15;51.64;99913.66;5104454;27;27577;-64
2021/05/27 07:50:37;;;;;;;2.80;1.15;;;;;;;16.20;51.48;99912.00;5094529;28;20028;-64
2021/05/27 07:53:02;;;;;;;1.80;1.10;;;;;;;16.53;52.27;99905.59;5093856;28;34709;-65
2021/05/27 07:55:28;;;;;;;5.82;1.40;;;;;;;16.77;51.69;99916.59;5094095;28;36248;-66
2021/05/27 07:57:53;;;;;;;2.22;1.30;;;;;;;16.96;50.90;99919.41;5093940;28;20028;-64
2021/05/27 08:00:19;;;;;;;1.80;0.80;;;;;;;17.39;52.17;99924.03;5094784;28;20024;-62
2021/05/27 08:02:47;;;;;;;2.63;1.13;;;;;;;17.98;51.51;99920.94;5094594;28;20032;-62
2021/05/27 08:05:12;;;;;;;2.20;1.05;;;;;;;17.85;49.20;99922.72;5094720;28;20025;-64
2021/05/27 08:07:38;;;;;;;1.33;0.80;;;;;;;17.82;49.14;99919.63;5104290;28;20032;-61
2021/05/27 08:10:04;;;;;;;4.43;1.13;;;;;;;18.04;50.88;99914.63;5099438;28;20033;-61
2021/05/27 08:12:29;;;;;;;1.75;1.00;;;;;;;18.23;49.89;99910.03;5093058;28;20082;-61
2021/05/27 08:14:55;;;;;;;2.05;1.08;;;;;;;18.12;49.07;99917.03;5078550;28;20032;-62
2021/05/27 08:17:20;;;;;;;4.30;1.10;;;;;;;18.02;48.51;99924.84;5104787;28;20036;-61
2021/05/27 08:19:45;;;;;;;1.88;1.13;;;;;;;17.73;47.16;99929.91;5115144;27;20028;-61
2021/05/27 08:22:11;;;;;;;3.47;1.10;;;;;;;17.41;47.15;99938.06;5114438;27;20472;-60
2021/05/27 08:24:36;;;;;;;1.27;0.90;;;;;;;17.19;47.20;99941.16;5114087;27;29376;-61
2021/05/27 08:27:02;;;;;;;1.20;0.93;;;;;;;17.23;48.16;99942.38;5114071;27;20032;-62
2021/05/27 08:29:27;;;;;;;3.17;1.33;;;;;;;17.52;49.11;99939.22;5099367;27;20029;-63
2021/05/27 08:31:53;;;;;;;2.75;1.30;;;;;;;17.95;48.82;99932.16;5094386;28;20036;-64
2021/05/27 08:34:19;;;;;;;2.38;1.13;;;;;;;18.18;48.10;99932.31;5094166;28;23510;-64
2021/05/27 08:36:45;;;;;;;1.38;1.00;;;;;;;18.48;48.39;99933.34;5094369;28;20100;-64
2021/05/27 08:39:10;;;;;;;2.83;1.40;;;;;;;19.05;49.39;99944.56;5094907;28;20035;-63
2021/05/27 08:41:35;;;;;;;1.98;0.90;;;;;;;19.62;47.95;99937.78;5093826;28;31416;-65
2021/05/27 08:44:01;;;;;;;2.00;1.10;;;;;;;19.73;46.39;99936.13;5094193;28;20029;-66
2021/05/27 08:46:27;;;;;;;2.90;1.10;;;;;;;19.51;44.56;99930.53;5093790;28;20078;-64
2021/05/27 08:48:52;;;;;;;2.63;1.13;;;;;;;19.22;43.78;99930.41;5093479;28;37778;-64
2021/05/27 08:51:17;;;;;;;2.28;1.10;;;;;;;18.84;43.43;99935.13;5094029;28;22184;-60
2021/05/27 08:53:44;;;;;;;2.47;1.10;;;;;;;18.89;44.72;99937.97;5094327;28;20067;-60
2021/05/27 08:56:09;;;;;;;1.77;0.90;;;;;;;19.48;45.97;99939.91;5093676;28;20485;-64
2021/05/27 08:58:35;;;;;;;1.05;0.95;;;;;;;19.66;43.99;99946.25;5093494;28;31314;-61
2021/05/27 09:01:00;;;;;;;1.73;1.08;;;;;;;19.87;45.10;99944.84;5093632;28;28773;-60
2021/05/27 09:03:42;;;;;;;1.38;0.95;;;;;;;20.20;43.95;99940.66;5110330;28;20041;-60
2021/05/27 09:06:09;;;;;;;3.60;1.38;;;;;;;19.76;41.35;99944.56;5114331;27;20058;-59
2021/05/27 09:08:36;;;;;;;2.33;1.08;;;;;;;19.48;41.89;99950.72;5114975;27;20443;-61
2021/05/27 09:11:06;;;;;;;4.38;1.17;;;;;;;19.19;40.59;99944.34;5117661;27;20115;-60
2021/05/27 09:13:32;;;;;;;2.85;1.10;;;;;;;18.82;41.02;99945.34;5100759;27;20036;-59
2021/05/27 09:16:13;;;;;;;1.63;1.10;;;;;;;18.72;41.30;99942.34;5096038;28;20025;-59
2021/05/27 09:18:41;;;;;;;2.10;1.20;;;;;;;18.77;42.10;99939.81;5097042;28;20032;-62
2021/05/27 09:21:08;;;;;;;1.40;1.00;;;;;;;18.76;41.41;99944.34;5103243;28;20496;-62
2021/05/27 09:23:35;;;;;;;1.35;0.90;;;;;;;18.79;40.93;99943.06;5099445;28;20051;-63
2021/05/27 09:26:06;;;;;;;1.55;0.80;;;;;;;19.27;41.88;99947.56;5097198;28;20051;-62
2021/05/27 09:28:31;;;;;;;5.05;1.58;;;;;;;20.08;44.29;99949.63;5096713;28;20042;-62
2021/05/27 09:31:00;;;;;;;1.65;0.98;;;;;;;20.31;39.21;99955.19;5097446;28;20086;-59
2021/05/27 09:33:31;;;;;;;3.35;2.17;;;;;;;20.19;39.95;99956.06;5095552;28;20457;-62
2021/05/27 09:36:04;;;;;;;1.25;1.05;;;;;;;20.29;39.62;99950.03;5096797;28;20040;-60
2021/05/27 09:38:31;;;;;;;1.10;0.90;;;;;;;20.17;38.89;99952.75;5112998;28;20093;-62
2021/05/27 09:40:56;;;;;;;4.50;1.30;;;;;;;20.46;40.12;99955.47;5117493;27;20036;-63
2021/05/27 09:43:23;;;;;;;1.85;0.80;;;;;;;21.00;40.12;99957.03;5117227;27;20530;-63
2021/05/27 09:46:02;;;;;;;2.28;1.00;;;;;;;21.27;39.94;99963.44;5116930;27;20082;-61
2021/05/27 09:48:28;;;;;;;1.67;0.70;;;;;;;21.00;37.15;99965.16;5117160;27;20031;-63
2021/05/27 09:50:59;;;;;;;1.02;0.90;;;;;;;20.52;36.26;99970.75;5117155;27;20024;-65
2021/05/27 09:53:27;;;;;;;0.60;0.60;;;;;;;20.11;36.91;99969.97;5117011;27;20035;-62
2021/05/27 09:55:54;;;;;;;1.00;0.80;;;;;;;19.82;36.21;99966.34;5117180;27;20582;-61
2021/05/27 09:58:19;;;;;;;2.15;0.85;;;;;;;19.53;36.69;99969.75;5110710;27;20035;-61
2021/05/27 10:00:45;;;;;;;1.63;0.90;;;;;;;19.41;37.21;99971.59;5105979;27;20397;-62
2021/05/27 10:03:30;;;;;;;1.48;0.90;;;;;;;19.58;38.10;99967.16;5104945;28;20835;-60
2021/05/27 10:05:56;;;;;;;3.10;1.00;;;;;;;19.86;38.24;99973.75;5096741;28;20039;-63
2021/05/27 10:08:22;;;;;;;4.65;1.13;;;;;;;20.15;38.23;99970.28;5096686;28;20116;-62
2021/05/27 10:10:48;;;;;;;1.58;0.80;;;;;;;20.46;37.06;99974.41;5096793;28;20028;-63
2021/05/27 10:13:14;;;;;;;1.52;1.05;;;;;;;20.48;37.18;99969.59;5096622;28;20028;-62
2021/05/27 10:15:43;;;;;;;1.77;0.82;;;;;;;20.40;36.64;99970.00;5096893;28;20029;-63
2021/05/27 10:18:09;;;;;;;1.55;0.80;;;;;;;20.52;37.28;99976.19;5079092;28;20024;-64
2021/05/27 10:20:34;;;;;;;1.67;0.80;;;;;;;20.63;37.32;99969.06;5096653;28;20025;-63
2021/05/27 10:23:01;;;;;;;5.38;0.90;;;;;;;20.70;36.18;99968.97;5095375;28;38194;-62
2021/05/27 10:25:26;;;;;;;2.28;1.13;;;;;;;20.44;35.70;99977.38;5096401;28;20028;-62
2021/05/27 10:27:52;;;;;;;3.58;1.10;;;;;;;19.97;34.95;99973.97;5095974;28;20052;-62
2021/05/27 10:30:22;;;;;;;4.07;1.05;;;;;;;19.54;35.34;99976.78;5095098;28;20385;-60
2021/05/27 10:33:01;;;;;;;3.03;0.77;;;;;;;19.35;35.66;99967.16;5095277;28;20039;-61
2021/05/27 10:35:54;;;;;;;2.35;0.95;;;;;;;19.05;34.98;99971.56;5095103;28;20098;-60
2021/05/27 10:38:38;;;;;;;5.35;1.05;;;;;;;18.84;35.66;99978.28;5093298;28;20036;-59
2021/05/27 10:41:07;;;;;;;2.70;0.70;;;;;;;18.81;36.00;99973.38;5096055;28;20025;-59
2021/05/27 10:43:33;;;;;;;1.15;0.88;;;;;;;18.77;36.30;99966.78;5095908;28;20033;-59
2021/05/27 10:45:58;;;;;;;2.72;0.70;;;;;;;18.94;36.26;99973.22;5094388;28;20021;-61
2021/05/27 10:48:28;;;;;;;1.92;0.88;;;;;;;19.01;36.27;99978.47;5095972;28;20033;-61
2021/05/27 10:53:42;;;;;;;1.30;0.77;;;;;;;20.33;37.65;99972.03;5095856;28;20045;-62
2021/05/27 10:56:08;;;;;;;2.03;0.57;;;;;;;20.53;36.03;99974.28;5095450;28;20033;-60
2021/05/27 10:58:49;;;;;;;1.67;0.65;;;;;;;20.70;36.63;99979.78;5099797;28;20054;-64
2021/05/27 11:01:15;;;;;;;2.58;0.77;;;;;;;21.02;36.52;99979.25;5104573;28;20127;-62
2021/05/27 11:03:51;;;;;;;0.80;0.80;;;;;;;21.12;34.05;99984.84;5104469;27;20032;-65
2021/05/27 11:06:19;;;;;;;1.88;0.80;;;;;;;20.72;34.11;99983.06;5115073;28;20055;-64
2021/05/27 11:08:45;;;;;;;0.75;0.55;;;;;;;20.57;33.65;99989.81;5116247;27;20074;-66
2021/05/27 11:11:37;;;;;;;2.72;0.80;;;;;;;20.46;34.81;99971.72;5114331;28;20469;-65
2021/05/27 11:14:34;;;;;;;2.05;0.93;;;;;;;20.46;34.52;99971.72;5092007;28;20048;-63
2021/05/27 11:25:25;;;;;;;2.50;1.10;;;;;;;19.68;34.23;99971.97;5092251;28;20036;-59
2021/05/27 11:27:59;;;;;;;3.45;1.02;;;;;;;19.97;35.31;99979.38;5095299;28;20020;-61
2021/05/27 11:30:37;;;;;;;1.95;0.80;;;;;;;20.19;35.34;99977.69;5094373;28;20124;-60
2021/05/27 11:33:12;;;;;;;1.33;0.98;;;;;;;20.55;35.03;99981.09;5094327;28;20040;-61
2021/05/27 11:35:37;;;;;;;3.65;1.10;;;;;;;20.74;35.10;99975.53;5095529;28;20097;-60
2021/05/27 11:38:03;;;;;;;1.33;1.02;;;;;;;20.96;34.63;99971.03;5095116;28;20082;-60
2021/05/27 11:40:31;;;;;;;4.82;1.00;;;;;;;21.16;35.04;99972.47;5095415;28;20020;-60
2021/05/27 11:42:56;;;;;;;4.03;1.10;;;;;;;21.26;33.81;99974.50;5094992;28;20201;-61
2021/05/27 11:45:23;;;;;;;2.75;0.90;;;;;;;20.95;32.92;99974.00;5095065;28;20091;-61
2021/05/27 11:48:13;;;;;;;1.63;0.90;;;;;;;20.43;32.97;99969.50;5095166;28;20029;-60
2021/05/27 11:50:38;;;;;;;2.35;0.80;;;;;;;20.14;33.33;99974.88;5103177;28;20089;-64
2021/05/27 11:53:05;;;;;;;0.95;0.80;;;;;;;19.88;33.15;99977.03;5094626;28;30290;-63
2021/05/27 11:55:30;;;;;;;2.92;1.15;;;;;;;19.71;33.60;99967.97;5094777;28;20493;-64
2021/05/27 11:57:56;;;;;;;3.20;0.80;;;;;;;19.66;33.89;99976.78;5093464;28;20028;-62
2021/05/27 12:00:21;;;;;;;3.17;0.90;;;;;;;19.75;34.57;99969.13;5095110;28;20030;-59
2021/05/27 12:02:48;;;;;;;1.60;1.00;;;;;;;19.67;33.75;99964.09;5094919;28;20431;-61
2021/05/27 12:05:33;;;;;;;4.90;1.00;;;;;;;19.45;33.80;99967.38;5093772;28;20036;-59
2021/05/27 12:08:10;;;;;;;2.00;0.85;;;;;;;19.23;33.70;99962.56;5095078;28;20031;-59
2021/05/27 12:10:47;;;;;;;1.60;0.80;;;;;;;19.14;34.08;99972.06;5094751;28;20024;-59
2021/05/27 12:13:20;;;;;;;1.88;1.00;;;;;;;19.15;34.45;99973.72;5093588;28;20037;-59
2021/05/27 12:15:46;;;;;;;1.85;1.10;;;;;;;18.97;34.01;99965.69;5102815;28;20037;-59
2021/05/27 12:18:16;;;;;;;1.73;1.02;;;;;;;18.90;34.41;99963.94;5094908;28;20542;-60
2021/05/27 12:20:42;;;;;;;1.75;0.80;;;;;;;18.72;34.43;99970.16;5094649;28;20108;-66
2021/05/27 12:23:08;;;;;;;2.10;0.93;;;;;;;18.50;34.36;99967.13;5093268;28;20049;-65
2021/05/27 12:25:35;;;;;;;5.38;2.13;;;;;;;18.34;34.96;99979.38;5094492;28;20029;-60
2021/05/27 12:28:02;;;;;;;1.55;0.90;;;;;;;18.38;35.32;99969.78;5094309;28;20029;-60
2021/05/27 12:30:30;;;;;;;2.13;1.25;;;;;;;18.24;35.12;99982.59;5094392;28;20044;-60
2021/05/27 12:32:56;;;;;;;1.67;1.00;;;;;;;18.18;35.85;99970.03;5093190;28;20032;-61
2021/05/27 12:35:31;;;;;;;2.35;1.55;;;;;;;18.32;36.32;99972.59;5092860;28;20512;-61
2021/05/27 12:38:00;;;;;;;2.55;1.10;;;;;;;18.50;36.11;99967.13;5094641;28;20489;-62
2021/05/27 12:40:32;;;;;;;2.13;1.20;;;;;;;18.51;35.98;99971.50;5102107;28;20036;-61
2021/05/27 12:42:58;;;;;;;3.25;1.00;;;;;;;18.64;36.69;99970.47;5102799;27;20025;-62
2021/05/27 12:45:36;;;;;;;3.10;1.10;;;;;;;18.83;36.56;99970.44;5106425;27;20028;-61
2021/05/27 12:48:02;;;;;;;3.83;1.30;;;;;;;18.92;36.77;99961.81;5097238;28;20029;-60
2021/05/27 12:50:27;;;;;;;4.15;1.05;;;;;;;19.25;36.68;99967.75;5096274;28;20037;-60
2021/05/27 12:52:53;;;;;;;2.92;1.17;;;;;;;19.47;36.73;99969.88;5098147;28;20086;-60
2021/05/27 12:55:18;;;;;;;1.80;1.00;;;;;;;19.41;35.55;99955.41;5097528;28;30930;-58
2021/05/27 12:57:54;;;;;;;3.13;0.95;;;;;;;18.94;35.25;99962.41;5077947;28;38156;-60
2021/05/27 13:00:20;;;;;;;2.42;0.95;;;;;;;18.63;35.43;99955.38;5096214;28;20162;-60
2021/05/27 13:03:05;;;;;;;1.55;0.90;;;;;;;18.47;35.77;99951.41;5096488;28;20024;-60
2021/05/27 13:05:30;;;;;;;2.70;1.10;;;;;;;18.42;36.49;99956.66;5097740;28;20029;-61
2021/05/27 13:07:57;;;;;;;2.30;1.00;;;;;;;18.47;36.54;99962.22;5097182;28;20408;-61
2021/05/27 13:10:33;;;;;;;3.53;0.93;;;;;;;18.27;35.96;99957.91;5097310;28;20033;-60
2021/05/27 13:12:59;;;;;;;4.15;0.93;;;;;;;18.05;36.34;99959.41;5055605;27;20046;-60
2021/05/27 13:15:24;;;;;;;1.77;1.00;;;;;;;17.89;36.38;99960.78;5096714;28;20039;-60
2021/05/27 13:18:08;;;;;;;1.13;0.90;;;;;;;17.91;37.12;99962.25;5096640;28;31835;-60
2021/05/27 13:20:57;;;;;;;1.38;0.88;;;;;;;18.05;37.65;99962.91;5125513;27;20074;-64
2021/05/27 13:23:28;;;;;;;1.50;1.10;;;;;;;18.51;38.85;99955.31;5138324;27;20040;-64
2021/05/27 13:26:17;;;;;;;1.33;0.80;;;;;;;18.89;38.27;99951.47;5138636;27;20180;-64
2021/05/27 13:28:43;;;;;;;2.90;1.00;;;;;;;19.06;38.16;99948.09;5138777;27;20678;-64
2021/05/27 13:31:08;;;;;;;2.65;0.90;;;;;;;19.30;37.54;99945.44;5138003;27;33987;-64
2021/05/27 13:33:34;;;;;;;1.98;1.00;;;;;;;19.37;37.10;99943.41;5136700;27;20510;-63
2021/05/27 13:36:02;;;;;;;2.47;0.90;;;;;;;19.68;38.06;99938.72;5138080;27;20027;-64
2021/05/27 13:38:29;;;;;;;2.70;1.10;;;;;;;19.80;36.56;99934.16;5138091;27;20027;-64
2021/05/27 13:40:55;;;;;;;2.38;0.90;;;;;;;19.73;36.61;99931.53;5136864;27;20070;-64
2021/05/27 13:43:23;;;;;;;2.25;1.08;;;;;;;19.68;36.15;99950.34;5138637;27;20027;-64
2021/05/27 13:45:48;;;;;;;1.20;1.00;;;;;;;19.56;36.30;99934.16;5137022;27;20138;-64
2021/05/27 13:48:14;;;;;;;1.60;0.98;;;;;;;19.56;36.77;99926.06;5137563;27;39165;-64
2021/05/27 13:50:41;;;;;;;1.48;0.80;;;;;;;19.57;36.66;99943.91;5137935;27;20036;-64
2021/05/27 13:53:08;;;;;;;3.03;0.90;;;;;;;19.23;35.22;99927.47;5138539;27;20085;-63
2021/05/27 13:55:51;;;;;;;3.20;0.88;;;;;;;18.80;35.85;99931.25;5137711;27;20039;-64
2021/05/27 13:58:20;;;;;;;1.90;0.80;;;;;;;18.60;36.07;99940.47;5134263;27;20032;-64
2021/05/27 21:31:54;;;;;;;3.72;2.20;;;;;;;9.49;65.72;100190.59;5189023;27;20333;-62
2021/05/27 21:34:19;;;;;;;4.00;2.25;;;;;;;9.51;65.98;100193.09;5195761;27;20038;-63
2021/05/27 21:36:44;;;;;;;6.85;2.60;;;;;;;9.54;66.04;100192.78;5140136;27;37219;-62
2021/05/27 21:39:10;;;;;;;4.38;2.40;;;;;;;9.56;66.22;100193.44;5194763;27;40007;-63
